createdAt,value
2022-10-18T00:01:53.875Z,19.10
2022-10-18T00:04:21.825Z,19.00
2022-10-18T00:06:50.334Z,18.90
2022-10-18T00:09:18.163Z,18.90
2022-10-18T00:11:47.705Z,19.00
2022-10-18T00:14:15.519Z,19.00
2022-10-18T00:16:43.487Z,19.00
2022-10-18T00:19:11.273Z,18.90
2022-10-18T00:21:39.398Z,18.90
2022-10-18T00:24:07.604Z,18.90
2022-10-18T00:26:35.838Z,18.90
2022-10-18T00:29:07.376Z,18.90
2022-10-18T00:31:37.139Z,18.90
2022-10-18T00:34:08.045Z,18.90
2022-10-18T00:36:36.136Z,18.90
2022-10-18T00:39:06.439Z,18.80
2022-10-18T00:41:36.532Z,18.70
2022-10-18T00:44:08.251Z,18.70
2022-10-18T00:46:38.001Z,18.70
2022-10-18T00:49:09.019Z,18.70
2022-10-18T00:51:45.376Z,18.70
2022-10-18T00:54:15.195Z,18.60
2022-10-18T00:56:45.030Z,18.70
2022-10-18T00:59:16.010Z,18.70
2022-10-18T01:01:43.905Z,18.70
2022-10-18T01:04:12.085Z,18.70
2022-10-18T01:06:47.577Z,18.70
2022-10-18T01:09:22.063Z,18.70
2022-10-18T01:12:12.682Z,18.70
2022-10-18T01:14:50.053Z,18.70
2022-10-18T01:17:21.816Z,18.70
2022-10-18T01:20:31.295Z,18.70
2022-10-18T01:23:05.625Z,18.70
2022-10-18T01:25:51.101Z,18.60
2022-10-18T01:32:38.879Z,18.50
2022-10-18T01:35:13.691Z,18.50
2022-10-18T01:37:46.359Z,18.50
2022-10-18T01:40:17.949Z,18.50
2022-10-18T01:42:47.819Z,18.50
2022-10-18T01:45:17.129Z,18.40
2022-10-18T01:47:48.840Z,18.40
2022-10-18T01:50:27.859Z,18.30
2022-10-18T01:52:56.609Z,18.20
2022-10-18T01:55:28.211Z,18.20
2022-10-18T01:58:03.548Z,18.20
2022-10-18T02:00:38.508Z,18.20
2022-10-18T02:03:17.010Z,18.30
2022-10-18T02:05:48.521Z,18.30
2022-10-18T02:08:26.430Z,18.30
2022-10-18T02:10:59.139Z,18.20
2022-10-18T02:13:32.659Z,18.00
2022-10-18T02:16:05.877Z,17.90
2022-10-18T02:18:39.981Z,18.00
2022-10-18T02:21:11.136Z,17.90
2022-10-18T02:23:39.507Z,18.00
2022-10-18T02:26:07.818Z,18.00
2022-10-18T02:28:36.142Z,18.10
2022-10-18T02:31:11.149Z,17.90
2022-10-18T02:33:47.028Z,17.90
2022-10-18T02:36:19.790Z,17.80
2022-10-18T02:38:48.552Z,17.90
2022-10-18T02:41:23.820Z,17.90
2022-10-18T02:43:51.764Z,18.00
2022-10-18T02:46:19.900Z,18.00
2022-10-18T02:48:49.452Z,18.00
2022-10-18T02:51:17.691Z,17.90
2022-10-18T02:53:45.600Z,17.90
2022-10-18T02:56:13.569Z,17.90
2022-10-18T02:58:41.563Z,18.00
2022-10-18T03:01:09.523Z,18.00
2022-10-18T03:03:37.552Z,17.90
2022-10-18T03:06:06.994Z,17.90
2022-10-18T03:08:35.951Z,17.90
2022-10-18T03:11:04.001Z,17.90
2022-10-18T03:13:32.439Z,17.90
2022-10-18T03:16:00.245Z,18.00
2022-10-18T03:18:28.306Z,17.90
2022-10-18T03:20:56.109Z,17.80
2022-10-18T03:23:25.594Z,17.80
2022-10-18T03:25:53.500Z,17.80
2022-10-18T03:28:21.878Z,17.80
2022-10-18T03:30:49.729Z,17.70
2022-10-18T03:33:18.099Z,17.60
2022-10-18T03:35:45.949Z,17.70
2022-10-18T03:38:13.975Z,17.60
2022-10-18T03:40:43.304Z,17.50
2022-10-18T03:43:11.281Z,17.50
2022-10-18T03:45:39.743Z,17.60
2022-10-18T03:48:08.059Z,17.60
2022-10-18T03:50:36.040Z,17.60
2022-10-18T03:53:03.947Z,17.50
2022-10-18T03:55:31.947Z,17.60
2022-10-18T03:58:03.653Z,17.60
2022-10-18T04:00:32.172Z,17.60
2022-10-18T04:03:00.283Z,17.50
2022-10-18T04:05:30.847Z,17.50
2022-10-18T04:07:58.962Z,17.60
2022-10-18T04:10:27.138Z,17.50
2022-10-18T04:13:05.931Z,17.60
2022-10-18T04:15:34.389Z,17.60
2022-10-18T04:18:02.729Z,17.60
2022-10-18T04:20:30.728Z,17.50
2022-10-18T04:22:58.857Z,17.50
2022-10-18T04:25:27.160Z,17.50
2022-10-18T04:27:55.798Z,17.30
2022-10-18T04:30:25.449Z,17.10
2022-10-18T04:32:53.382Z,17.00
2022-10-18T04:35:24.779Z,17.00
2022-10-18T04:37:52.749Z,17.00
2022-10-18T04:40:20.768Z,17.00
2022-10-18T04:42:48.878Z,17.00
2022-10-18T04:45:16.883Z,17.00
2022-10-18T04:47:46.407Z,17.00
2022-10-18T04:50:14.339Z,17.00
2022-10-18T04:52:42.389Z,17.00
2022-10-18T04:55:10.556Z,17.00
2022-10-18T04:57:38.630Z,17.00
2022-10-18T05:00:07.659Z,17.00
2022-10-18T05:02:36.019Z,17.00
2022-10-18T05:05:09.119Z,17.00
2022-10-18T05:07:39.719Z,16.90
2022-10-18T05:10:19.599Z,16.90
2022-10-18T05:12:47.909Z,17.00
2022-10-18T05:15:15.859Z,17.00
2022-10-18T05:17:43.918Z,16.80
2022-10-18T05:22:42.336Z,16.60
2022-10-18T05:25:10.661Z,16.60
2022-10-18T05:27:38.808Z,16.60
2022-10-18T05:30:08.124Z,16.60
2022-10-18T05:32:36.185Z,16.50
2022-10-18T05:35:04.470Z,16.40
2022-10-18T05:37:33.835Z,16.30
2022-10-18T05:40:01.880Z,16.30
2022-10-18T05:42:30.019Z,16.40
2022-10-18T05:44:58.169Z,16.30
2022-10-18T05:47:26.140Z,16.30
2022-10-18T05:49:54.378Z,16.30
2022-10-18T05:52:22.383Z,16.30
2022-10-18T05:54:51.894Z,16.20
2022-10-18T05:57:19.965Z,16.50
2022-10-18T05:59:47.788Z,16.50
2022-10-18T06:02:15.809Z,16.40
2022-10-18T06:04:43.743Z,16.40
2022-10-18T06:07:12.100Z,16.30
2022-10-18T06:09:40.075Z,16.30
2022-10-18T06:12:09.829Z,16.30
2022-10-18T06:14:38.069Z,16.30
2022-10-18T06:17:06.080Z,16.40
2022-10-18T06:19:34.213Z,16.40
2022-10-18T06:22:02.122Z,16.50
2022-10-18T06:24:30.066Z,16.40
2022-10-18T06:26:58.544Z,16.50
2022-10-18T06:29:28.025Z,16.50
2022-10-18T06:31:55.982Z,16.50
2022-10-18T06:34:23.986Z,16.60
2022-10-18T06:36:56.313Z,16.60
2022-10-18T06:39:24.798Z,16.70
2022-10-18T06:41:53.090Z,16.80
2022-10-18T06:44:21.623Z,16.70
2022-10-18T06:46:51.899Z,16.80
2022-10-18T06:49:20.575Z,16.80
2022-10-18T06:51:48.588Z,16.90
2022-10-18T06:54:18.438Z,16.90
2022-10-18T06:56:47.316Z,16.90
2022-10-18T06:59:15.702Z,17.00
2022-10-18T07:01:44.185Z,17.10
2022-10-18T07:04:13.831Z,17.20
2022-10-18T07:06:41.825Z,17.30
2022-10-18T07:09:09.752Z,17.30
2022-10-18T07:11:37.812Z,17.20
2022-10-18T07:14:05.774Z,17.30
2022-10-18T07:16:35.069Z,17.40
2022-10-18T07:19:03.461Z,17.30
2022-10-18T07:21:32.983Z,17.30
2022-10-18T07:24:00.896Z,17.40
2022-10-18T07:26:30.809Z,17.50
2022-10-18T07:29:01.864Z,17.50
2022-10-18T07:31:30.982Z,17.50
2022-10-18T07:33:58.828Z,17.50
2022-10-18T07:36:27.301Z,17.60
2022-10-18T07:38:56.683Z,17.90
2022-10-18T07:41:24.763Z,18.10
2022-10-18T07:43:54.485Z,18.30
2022-10-18T07:46:23.320Z,18.30
2022-10-18T07:48:51.676Z,18.50
2022-10-18T07:51:22.741Z,18.50
2022-10-18T07:53:50.604Z,18.50
2022-10-18T07:56:22.057Z,18.50
2022-10-18T07:58:51.828Z,18.50
2022-10-18T08:01:20.992Z,18.50
2022-10-18T08:03:49.137Z,18.60
2022-10-18T08:06:19.887Z,18.70
2022-10-18T08:08:48.390Z,18.90
2022-10-18T08:11:18.106Z,19.00
2022-10-18T08:13:47.733Z,19.00
2022-10-18T08:16:18.132Z,19.00
2022-10-18T08:18:46.090Z,19.10
2022-10-18T08:21:18.699Z,19.10
2022-10-18T08:23:46.826Z,19.10
2022-10-18T08:26:16.887Z,19.20
2022-10-18T08:28:54.101Z,19.20
2022-10-18T08:31:31.958Z,19.30
2022-10-18T08:34:00.609Z,19.40
2022-10-18T08:36:28.984Z,19.40
2022-10-18T08:38:56.883Z,19.50
2022-10-18T08:41:41.261Z,19.60
2022-10-18T08:44:14.392Z,19.60
2022-10-18T08:46:46.439Z,19.60
2022-10-18T08:49:24.454Z,19.70
2022-10-18T08:51:52.949Z,19.80
2022-10-18T08:54:30.122Z,19.80
2022-10-18T08:57:01.096Z,19.80
2022-10-18T08:59:38.334Z,20.00
2022-10-18T09:02:17.637Z,20.10
2022-10-18T09:04:51.700Z,20.20
2022-10-18T09:07:37.881Z,20.30
2022-10-18T09:10:15.785Z,20.30
2022-10-18T09:12:58.566Z,20.40
2022-10-18T09:15:34.073Z,20.50
2022-10-18T09:18:13.762Z,20.60
2022-10-18T09:20:51.341Z,20.60
2022-10-18T09:23:22.406Z,20.70
2022-10-18T09:25:56.564Z,20.70
2022-10-18T09:28:35.692Z,20.80
2022-10-18T09:31:12.367Z,20.80
2022-10-18T09:33:43.117Z,21.00
2022-10-18T09:36:17.454Z,21.10
2022-10-18T09:38:48.956Z,21.20
2022-10-18T09:41:21.087Z,21.30
2022-10-18T09:43:54.424Z,21.40
2022-10-18T09:46:28.425Z,21.40
2022-10-18T09:49:00.886Z,21.50
2022-10-18T09:51:34.829Z,21.60
2022-10-18T09:54:22.375Z,21.70
2022-10-18T09:56:52.483Z,21.80
2022-10-18T09:59:40.674Z,21.90
2022-10-18T10:02:14.085Z,21.80
2022-10-18T10:04:41.874Z,22.00
2022-10-18T10:07:14.285Z,22.00
2022-10-18T10:09:46.375Z,22.00
2022-10-18T10:12:29.709Z,22.10
2022-10-18T10:15:17.935Z,22.20
2022-10-18T10:17:56.415Z,22.20
2022-10-18T10:20:29.687Z,22.30
2022-10-18T10:23:07.346Z,22.40
2022-10-18T10:25:38.391Z,22.60
2022-10-18T10:28:14.215Z,22.60
2022-10-18T10:30:42.059Z,22.70
2022-10-18T10:33:33.335Z,22.70
2022-10-18T10:36:02.559Z,22.90
2022-10-18T10:38:31.546Z,23.00
2022-10-18T10:41:00.335Z,23.00
2022-10-18T10:43:38.013Z,23.20
2022-10-18T10:46:10.182Z,23.30
2022-10-18T10:48:47.814Z,23.30
2022-10-18T10:51:19.105Z,23.30
2022-10-18T10:53:57.665Z,23.30
2022-10-18T10:56:27.714Z,23.40
2022-10-18T10:58:58.785Z,23.50
2022-10-18T11:01:30.346Z,23.50
2022-10-18T11:04:01.624Z,23.60
2022-10-18T11:06:42.424Z,23.60
2022-10-18T11:09:23.346Z,23.80
2022-10-18T11:12:01.646Z,23.90
2022-10-18T11:14:35.366Z,24.00
2022-10-18T11:17:12.597Z,24.00
2022-10-18T11:19:55.511Z,24.00
2022-10-18T11:22:26.526Z,24.10
2022-10-18T11:24:54.355Z,24.20
2022-10-18T11:27:28.261Z,24.20
2022-10-18T11:30:14.897Z,24.30
2022-10-18T11:32:49.550Z,24.40
2022-10-18T11:35:33.193Z,24.50
2022-10-18T11:38:13.308Z,24.70
2022-10-18T11:40:50.674Z,24.70
2022-10-18T11:43:30.361Z,24.70
2022-10-18T11:46:13.066Z,24.80
2022-10-18T11:48:56.079Z,24.90
2022-10-18T11:51:50.231Z,25.00
2022-10-18T11:54:49.944Z,25.10
2022-10-18T11:57:41.373Z,25.30
2022-10-18T12:00:30.668Z,25.30
2022-10-18T12:03:12.486Z,25.20
2022-10-18T12:05:43.468Z,25.20
2022-10-18T12:08:23.156Z,25.40
2022-10-18T12:11:09.245Z,25.50
2022-10-18T12:13:43.469Z,25.60
2022-10-18T12:16:12.553Z,25.60
2022-10-18T12:21:30.557Z,25.60
2022-10-18T12:24:03.095Z,25.70
2022-10-18T12:26:32.636Z,25.80
2022-10-18T12:29:10.887Z,25.80
2022-10-18T12:35:31.535Z,25.90
2022-10-18T12:38:16.439Z,26.10
2022-10-18T12:40:48.909Z,26.20
2022-10-18T12:43:20.407Z,26.20
2022-10-18T12:45:52.278Z,26.30
2022-10-18T12:48:33.188Z,26.50
2022-10-18T12:51:06.127Z,26.40
2022-10-18T12:53:34.951Z,26.50
2022-10-18T12:56:37.869Z,26.60
2022-10-18T12:59:51.362Z,26.70
2022-10-18T13:02:25.401Z,26.80
2022-10-18T13:04:53.275Z,26.60
2022-10-18T13:07:41.201Z,26.60
2022-10-18T13:10:42.149Z,26.70
2022-10-18T13:13:51.000Z,26.70
2022-10-18T13:16:32.289Z,26.60
2022-10-18T13:19:08.001Z,26.50
2022-10-18T13:21:46.879Z,26.50
2022-10-18T13:24:26.259Z,26.50
2022-10-18T13:27:36.556Z,26.50
2022-10-18T13:30:30.729Z,26.60
2022-10-18T13:33:14.968Z,26.60
2022-10-18T13:35:52.537Z,26.60
2022-10-18T13:38:42.986Z,26.60
2022-10-18T13:41:13.264Z,26.50
2022-10-18T13:44:19.666Z,26.50
2022-10-18T13:47:38.224Z,26.60
2022-10-18T13:53:39.921Z,26.50
2022-10-18T13:56:29.711Z,26.50
2022-10-18T13:59:15.238Z,26.50
2022-10-18T14:01:54.769Z,26.50
2022-10-18T14:04:48.048Z,26.50
2022-10-18T14:07:19.487Z,26.50
2022-10-18T14:09:54.918Z,26.50
2022-10-18T14:12:29.187Z,26.60
2022-10-18T14:15:04.029Z,26.50
2022-10-18T14:20:21.986Z,26.60
2022-10-18T14:22:57.839Z,26.80
2022-10-18T14:25:29.492Z,26.90
2022-10-18T14:28:12.429Z,27.00
2022-10-18T14:30:56.056Z,27.00
2022-10-18T14:33:30.353Z,27.00
2022-10-18T14:36:09.161Z,26.90
2022-10-18T14:38:46.936Z,27.00
2022-10-18T14:41:16.459Z,26.90
2022-10-18T14:43:44.613Z,26.80
2022-10-18T14:46:18.939Z,26.50
2022-10-18T14:48:54.401Z,26.30
2022-10-18T14:51:24.107Z,26.10
2022-10-18T14:53:53.037Z,26.00
2022-10-18T14:56:26.045Z,25.90
2022-10-18T14:58:55.424Z,25.90
2022-10-18T15:01:26.693Z,25.90
2022-10-18T15:03:57.802Z,26.20
2022-10-18T15:06:27.714Z,26.60
2022-10-18T15:08:57.624Z,26.80
2022-10-18T15:11:26.870Z,27.10
2022-10-18T15:13:56.776Z,27.10
2022-10-18T15:16:26.083Z,27.20
2022-10-18T15:19:02.234Z,27.20
2022-10-18T15:21:32.022Z,27.20
2022-10-18T15:24:28.122Z,27.30
2022-10-18T15:26:59.844Z,27.20
2022-10-18T15:29:32.979Z,27.00
2022-10-18T15:32:09.029Z,26.80
2022-10-18T15:34:36.928Z,26.20
2022-10-18T15:37:33.494Z,26.20
2022-10-18T15:40:32.849Z,26.20
2022-10-18T15:43:02.401Z,26.00
2022-10-18T15:45:32.649Z,25.90
2022-10-18T15:48:20.003Z,25.50
2022-10-18T15:50:49.258Z,25.00
2022-10-18T15:53:50.393Z,24.70
2022-10-18T15:56:30.915Z,24.40
2022-10-18T15:59:01.038Z,24.20
2022-10-18T16:01:43.869Z,24.10
2022-10-18T16:04:23.586Z,24.00
2022-10-18T16:06:52.183Z,23.70
2022-10-18T16:09:22.813Z,23.60
2022-10-18T16:11:56.390Z,23.50
2022-10-18T16:14:25.154Z,23.40
2022-10-18T16:17:00.804Z,23.30
2022-10-18T16:19:28.842Z,23.20
2022-10-18T16:21:56.678Z,23.10
2022-10-18T16:24:26.494Z,23.00
2022-10-18T16:26:54.373Z,23.00
2022-10-18T16:29:28.963Z,22.80
2022-10-18T16:31:58.435Z,22.80
2022-10-18T16:34:27.317Z,22.70
2022-10-18T16:36:56.425Z,22.60
2022-10-18T16:39:26.128Z,22.50
2022-10-18T16:41:54.189Z,22.50
2022-10-18T16:44:22.099Z,22.40
2022-10-18T16:46:53.838Z,22.40
2022-10-18T16:49:25.155Z,22.40
2022-10-18T16:51:53.946Z,22.30
2022-10-18T16:54:21.868Z,22.20
2022-10-18T16:56:51.402Z,22.10
2022-10-18T16:59:23.497Z,22.00
2022-10-18T17:01:51.339Z,22.00
2022-10-18T17:04:22.485Z,22.00
2022-10-18T17:06:51.710Z,21.90
2022-10-18T17:09:19.660Z,21.90
2022-10-18T17:11:47.689Z,21.80
2022-10-18T17:14:16.958Z,21.80
2022-10-18T17:16:47.079Z,21.70
2022-10-18T17:19:18.670Z,21.70
2022-10-18T17:21:46.438Z,21.60
2022-10-18T17:24:14.360Z,21.70
2022-10-18T17:26:42.323Z,21.80
2022-10-18T17:29:10.251Z,22.00
2022-10-18T17:31:39.782Z,22.00
2022-10-18T17:34:07.846Z,21.80
2022-10-18T17:36:35.751Z,21.70
2022-10-18T17:39:04.065Z,21.70
2022-10-18T17:41:32.644Z,21.60
2022-10-18T17:44:02.250Z,21.50
2022-10-18T17:46:30.062Z,21.40
2022-10-18T17:48:59.383Z,21.20
2022-10-18T17:51:27.353Z,21.20
2022-10-18T17:53:55.382Z,21.20
2022-10-18T17:56:23.391Z,21.20
2022-10-18T17:58:52.119Z,21.30
2022-10-18T18:01:22.328Z,21.40
2022-10-18T18:03:51.262Z,21.50
2022-10-18T18:06:22.013Z,21.40
2022-10-18T18:08:50.863Z,21.40
2022-10-18T18:11:19.179Z,21.30
2022-10-18T18:13:47.342Z,21.30
2022-10-18T18:16:17.233Z,21.40
2022-10-18T18:18:45.802Z,21.40
2022-10-18T18:21:14.192Z,21.50
2022-10-18T18:23:43.899Z,21.50
2022-10-18T18:26:13.368Z,21.40
2022-10-18T18:28:41.523Z,21.40
2022-10-18T18:31:13.744Z,21.40
2022-10-18T18:33:42.382Z,21.30
2022-10-18T18:36:10.869Z,21.20
2022-10-18T18:38:39.860Z,21.10
2022-10-18T18:41:11.996Z,21.10
2022-10-18T18:43:41.552Z,20.90
2022-10-18T18:46:09.877Z,20.80
2022-10-18T18:48:38.144Z,20.80
2022-10-18T18:51:09.022Z,20.70
2022-10-18T18:53:38.659Z,20.70
2022-10-18T18:56:10.278Z,20.70
2022-10-18T18:58:40.034Z,20.70
2022-10-18T19:01:09.448Z,20.70
2022-10-18T19:03:40.361Z,20.70
2022-10-18T19:06:10.590Z,20.70
2022-10-18T19:08:40.006Z,20.60
2022-10-18T19:11:12.581Z,20.60
2022-10-18T19:13:40.699Z,20.70
2022-10-18T19:16:19.077Z,20.60
2022-10-18T19:18:54.882Z,20.70
2022-10-18T19:21:24.952Z,20.80
2022-10-18T19:23:53.781Z,20.90
2022-10-18T19:26:29.822Z,21.00
2022-10-18T19:29:02.446Z,21.10
2022-10-18T19:31:30.801Z,21.10
2022-10-18T19:34:06.272Z,21.20
2022-10-18T19:36:35.383Z,21.30
2022-10-18T19:39:04.382Z,21.30
2022-10-18T19:41:33.908Z,21.30
2022-10-18T19:44:01.765Z,21.30
2022-10-18T19:46:30.208Z,21.20
2022-10-18T19:48:58.905Z,21.30
2022-10-18T19:51:28.527Z,21.30
2022-10-18T19:53:57.370Z,21.30
2022-10-18T19:56:27.231Z,21.30
2022-10-18T19:58:57.189Z,21.30
2022-10-18T20:01:26.146Z,21.20
2022-10-18T20:03:54.372Z,21.20
2022-10-18T20:06:23.451Z,21.10
2022-10-18T20:08:51.599Z,21.20
2022-10-18T20:11:21.683Z,21.10
2022-10-18T20:13:49.840Z,21.00
2022-10-18T20:16:25.463Z,20.90
2022-10-18T20:18:57.264Z,20.90
2022-10-18T20:21:26.622Z,20.90
2022-10-18T20:23:55.358Z,20.80
2022-10-18T20:26:25.652Z,20.80
2022-10-18T20:28:59.999Z,20.70
2022-10-18T20:31:31.123Z,20.70
2022-10-18T20:34:00.766Z,20.50
2022-10-18T20:36:29.706Z,20.50
2022-10-18T20:38:58.054Z,20.40
2022-10-18T20:41:43.328Z,20.40
2022-10-18T20:44:14.616Z,20.50
2022-10-18T20:46:44.520Z,20.50
2022-10-18T20:49:16.597Z,20.50
2022-10-18T20:51:44.540Z,20.40
2022-10-18T20:54:12.732Z,20.30
2022-10-18T20:56:40.705Z,20.30
2022-10-18T20:59:10.220Z,20.30
2022-10-18T21:01:39.694Z,20.30
2022-10-18T21:04:10.595Z,20.30
2022-10-18T21:06:41.168Z,20.30
2022-10-18T21:09:11.293Z,20.30
2022-10-18T21:11:40.643Z,20.20
2022-10-18T21:14:11.232Z,20.20
2022-10-18T21:16:39.324Z,20.20
2022-10-18T21:19:11.624Z,20.20
2022-10-18T21:21:41.608Z,20.20
2022-10-18T21:24:09.688Z,20.10
2022-10-18T21:26:37.606Z,20.20
2022-10-18T21:29:06.450Z,20.20
2022-10-18T21:31:36.147Z,20.20
2022-10-18T21:34:07.050Z,20.20
2022-10-18T21:36:37.208Z,20.20
2022-10-18T21:39:06.832Z,20.10
2022-10-18T21:41:34.988Z,20.00
2022-10-18T21:44:06.870Z,20.10
2022-10-18T21:46:39.463Z,20.10
2022-10-18T21:49:07.960Z,20.10
2022-10-18T21:51:37.323Z,20.00
2022-10-18T21:54:07.262Z,20.00
2022-10-18T21:56:36.183Z,20.00
2022-10-18T21:59:04.714Z,19.90
2022-10-18T22:01:33.755Z,19.90
2022-10-18T22:04:03.911Z,19.90
2022-10-18T22:09:08.872Z,20.00
2022-10-18T22:11:38.815Z,20.00
2022-10-18T22:14:06.671Z,20.00
2022-10-18T22:16:34.624Z,19.90
2022-10-18T22:19:04.212Z,20.00
2022-10-18T22:21:32.534Z,20.00
2022-10-18T22:24:03.857Z,20.00
2022-10-18T22:26:35.976Z,20.00
2022-10-18T22:29:06.341Z,20.10
2022-10-18T22:31:35.579Z,20.10
2022-10-18T22:34:05.789Z,20.20
2022-10-18T22:36:34.483Z,20.20
2022-10-18T22:39:02.602Z,20.20
2022-10-18T22:41:30.630Z,20.10
2022-10-18T22:44:03.371Z,20.00
2022-10-18T22:46:32.890Z,20.10
2022-10-18T22:49:00.775Z,20.10
2022-10-18T22:51:28.693Z,20.10
2022-10-18T22:53:56.440Z,20.00
2022-10-18T22:56:24.848Z,20.10
2022-10-18T22:58:53.191Z,20.10
2022-10-18T23:01:24.197Z,20.00
2022-10-18T23:03:55.666Z,19.90
2022-10-18T23:06:25.916Z,19.90
2022-10-18T23:08:55.454Z,20.00
2022-10-18T23:11:24.121Z,20.00
2022-10-18T23:13:52.661Z,19.90
2022-10-18T23:16:22.254Z,19.90
2022-10-18T23:18:51.513Z,19.90
2022-10-18T23:21:19.880Z,19.90
2022-10-18T23:23:48.205Z,19.90
2022-10-18T23:26:18.217Z,19.80
2022-10-18T23:28:47.456Z,19.80
2022-10-18T23:31:20.599Z,19.80
2022-10-18T23:33:52.348Z,19.70
2022-10-18T23:36:20.632Z,19.70
2022-10-18T23:38:48.434Z,19.70
2022-10-18T23:41:17.707Z,19.60
2022-10-18T23:43:45.941Z,19.60
2022-10-18T23:46:14.405Z,19.60
2022-10-18T23:48:42.299Z,19.50
2022-10-18T23:51:11.760Z,19.50
2022-10-18T23:53:39.695Z,19.50
2022-10-18T23:56:10.005Z,19.40
2022-10-18T23:58:38.282Z,19.40
